sensor_id;sensor_type;location;lat;lon;timestamp;temperature;humidity
13472;DHT22;6808;49.444;11.034;2022-12-18T00:00:58;-8.70;93.30
13472;DHT22;6808;49.444;11.034;2022-12-18T00:03:25;-8.70;93.10
13472;DHT22;6808;49.444;11.034;2022-12-18T00:05:51;-8.80;93.00
13472;DHT22;6808;49.444;11.034;2022-12-18T00:08:18;-8.80;93.10
13472;DHT22;6808;49.444;11.034;2022-12-18T00:10:45;-8.80;93.40
13472;DHT22;6808;49.444;11.034;2022-12-18T00:13:11;-8.90;93.40
13472;DHT22;6808;49.444;11.034;2022-12-18T00:15:38;-9.00;93.60
13472;DHT22;6808;49.444;11.034;2022-12-18T00:18:04;-8.90;93.80
13472;DHT22;6808;49.444;11.034;2022-12-18T00:20:30;-9.00;93.80
13472;DHT22;6808;49.444;11.034;2022-12-18T00:22:56;-8.90;93.90
13472;DHT22;6808;49.444;11.034;2022-12-18T00:25:22;-8.90;93.70
13472;DHT22;6808;49.444;11.034;2022-12-18T00:27:48;-8.80;93.70
13472;DHT22;6808;49.444;11.034;2022-12-18T00:30:14;-8.90;93.60
13472;DHT22;6808;49.444;11.034;2022-12-18T00:32:40;-8.90;93.70
13472;DHT22;6808;49.444;11.034;2022-12-18T00:35:06;-8.90;93.60
13472;DHT22;6808;49.444;11.034;2022-12-18T00:37:33;-8.90;93.60
13472;DHT22;6808;49.444;11.034;2022-12-18T00:39:59;-8.90;93.50
13472;DHT22;6808;49.444;11.034;2022-12-18T00:42:25;-9.00;93.50
13472;DHT22;6808;49.444;11.034;2022-12-18T00:45:10;-9.00;93.60
13472;DHT22;6808;49.444;11.034;2022-12-18T00:47:35;-9.00;93.70
13472;DHT22;6808;49.444;11.034;2022-12-18T00:50:01;-9.00;93.60
13472;DHT22;6808;49.444;11.034;2022-12-18T00:52:27;-9.00;93.60
13472;DHT22;6808;49.444;11.034;2022-12-18T00:54:52;-9.10;93.60
13472;DHT22;6808;49.444;11.034;2022-12-18T00:57:18;-9.10;93.70
13472;DHT22;6808;49.444;11.034;2022-12-18T00:59:43;-9.10;93.90
13472;DHT22;6808;49.444;11.034;2022-12-18T01:02:09;-9.10;94.00
13472;DHT22;6808;49.444;11.034;2022-12-18T01:04:35;-9.00;94.10
13472;DHT22;6808;49.444;11.034;2022-12-18T01:07:00;-9.00;93.90
13472;DHT22;6808;49.444;11.034;2022-12-18T01:09:26;-9.00;93.90
13472;DHT22;6808;49.444;11.034;2022-12-18T01:11:51;-9.00;94.10
13472;DHT22;6808;49.444;11.034;2022-12-18T01:14:17;-9.00;94.30
13472;DHT22;6808;49.444;11.034;2022-12-18T01:16:43;-9.10;94.50
13472;DHT22;6808;49.444;11.034;2022-12-18T01:19:09;-8.40;95.50
13472;DHT22;6808;49.444;11.034;2022-12-18T01:21:34;-9.10;95.80
13472;DHT22;6808;49.444;11.034;2022-12-18T01:24:00;-9.20;97.00
13472;DHT22;6808;49.444;11.034;2022-12-18T01:26:26;-9.10;97.90
13472;DHT22;6808;49.444;11.034;2022-12-18T01:28:55;-9.00;98.40
13472;DHT22;6808;49.444;11.034;2022-12-18T01:31:24;-9.00;98.70
13472;DHT22;6808;49.444;11.034;2022-12-18T01:33:52;-9.00;99.00
13472;DHT22;6808;49.444;11.034;2022-12-18T01:36:18;-9.00;99.30
13472;DHT22;6808;49.444;11.034;2022-12-18T01:38:44;-9.10;99.70
13472;DHT22;6808;49.444;11.034;2022-12-18T01:41:11;-9.10;99.90
13472;DHT22;6808;49.444;11.034;2022-12-18T01:43:44;-9.10;99.90
13472;DHT22;6808;49.444;11.034;2022-12-18T01:46:10;-9.10;99.90
13472;DHT22;6808;49.444;11.034;2022-12-18T01:48:36;-9.00;99.90
13472;DHT22;6808;49.444;11.034;2022-12-18T01:51:02;-9.00;99.90
13472;DHT22;6808;49.444;11.034;2022-12-18T01:53:28;-9.00;99.90
13472;DHT22;6808;49.444;11.034;2022-12-18T01:55:55;-9.00;99.90
13472;DHT22;6808;49.444;11.034;2022-12-18T01:58:28;-9.00;99.90
13472;DHT22;6808;49.444;11.034;2022-12-18T02:00:55;-9.00;99.90
13472;DHT22;6808;49.444;11.034;2022-12-18T02:03:21;-9.00;99.90
13472;DHT22;6808;49.444;11.034;2022-12-18T02:08:39;-8.90;99.90
13472;DHT22;6808;49.444;11.034;2022-12-18T02:11:12;-8.80;99.90
13472;DHT22;6808;49.444;11.034;2022-12-18T02:17:20;-8.80;99.90
13472;DHT22;6808;49.444;11.034;2022-12-18T02:22:13;-8.70;99.90
13472;DHT22;6808;49.444;11.034;2022-12-18T02:24:53;-8.70;99.90
13472;DHT22;6808;49.444;11.034;2022-12-18T02:27:19;-8.70;99.90
13472;DHT22;6808;49.444;11.034;2022-12-18T02:29:55;-8.60;99.90
13472;DHT22;6808;49.444;11.034;2022-12-18T02:32:27;-8.60;99.90
13472;DHT22;6808;49.444;11.034;2022-12-18T02:34:55;-8.50;99.90
13472;DHT22;6808;49.444;11.034;2022-12-18T02:37:22;-8.60;99.90
13472;DHT22;6808;49.444;11.034;2022-12-18T02:39:49;-8.50;99.90
13472;DHT22;6808;49.444;11.034;2022-12-18T02:42:17;-8.50;99.90
13472;DHT22;6808;49.444;11.034;2022-12-18T02:44:48;-8.40;99.90
13472;DHT22;6808;49.444;11.034;2022-12-18T02:47:17;-8.40;99.90
13472;DHT22;6808;49.444;11.034;2022-12-18T02:49:57;-8.30;99.90
13472;DHT22;6808;49.444;11.034;2022-12-18T03:00:23;-8.10;99.90
13472;DHT22;6808;49.444;11.034;2022-12-18T03:05:43;-8.00;99.90
13472;DHT22;6808;49.444;11.034;2022-12-18T03:08:17;-7.90;99.90
13472;DHT22;6808;49.444;11.034;2022-12-18T03:11:05;-7.80;99.90
13472;DHT22;6808;49.444;11.034;2022-12-18T03:13:43;-7.70;99.90
13472;DHT22;6808;49.444;11.034;2022-12-18T03:16:14;-7.60;99.90
13472;DHT22;6808;49.444;11.034;2022-12-18T03:18:52;-7.60;99.90
13472;DHT22;6808;49.444;11.034;2022-12-18T03:21:21;-7.50;99.90
13472;DHT22;6808;49.444;11.034;2022-12-18T03:23:49;-7.50;99.90
13472;DHT22;6808;49.444;11.034;2022-12-18T03:26:18;-7.50;99.90
13472;DHT22;6808;49.444;11.034;2022-12-18T03:28:52;-7.40;99.90
13472;DHT22;6808;49.444;11.034;2022-12-18T03:31:20;-7.40;99.90
13472;DHT22;6808;49.444;11.034;2022-12-18T03:33:54;-7.40;99.90
13472;DHT22;6808;49.444;11.034;2022-12-18T03:36:21;-6.60;99.90
13472;DHT22;6808;49.444;11.034;2022-12-18T03:38:47;-7.30;99.90
13472;DHT22;6808;49.444;11.034;2022-12-18T03:41:32;-7.20;99.90
13472;DHT22;6808;49.444;11.034;2022-12-18T03:47:33;-7.20;99.90
13472;DHT22;6808;49.444;11.034;2022-12-18T03:49:58;-7.10;99.90
13472;DHT22;6808;49.444;11.034;2022-12-18T03:52:40;-7.10;99.90
13472;DHT22;6808;49.444;11.034;2022-12-18T03:55:09;-7.10;99.90
13472;DHT22;6808;49.444;11.034;2022-12-18T03:57:35;-7.00;99.90
13472;DHT22;6808;49.444;11.034;2022-12-18T04:00:07;-7.00;99.90
13472;DHT22;6808;49.444;11.034;2022-12-18T04:02:34;-6.90;99.90
13472;DHT22;6808;49.444;11.034;2022-12-18T04:05:03;-6.90;99.90
13472;DHT22;6808;49.444;11.034;2022-12-18T04:07:30;-6.90;99.90
13472;DHT22;6808;49.444;11.034;2022-12-18T04:09:56;-6.90;99.90
13472;DHT22;6808;49.444;11.034;2022-12-18T04:12:25;-6.90;99.90
13472;DHT22;6808;49.444;11.034;2022-12-18T04:14:51;-6.90;99.90
13472;DHT22;6808;49.444;11.034;2022-12-18T04:17:17;-6.90;99.90
13472;DHT22;6808;49.444;11.034;2022-12-18T04:19:43;-6.70;99.90
13472;DHT22;6808;49.444;11.034;2022-12-18T04:22:09;-6.80;99.90
13472;DHT22;6808;49.444;11.034;2022-12-18T04:24:36;-6.70;99.90
13472;DHT22;6808;49.444;11.034;2022-12-18T04:27:01;-6.60;99.90
13472;DHT22;6808;49.444;11.034;2022-12-18T04:29:27;-6.60;99.90
13472;DHT22;6808;49.444;11.034;2022-12-18T04:31:53;-6.60;99.90
13472;DHT22;6808;49.444;11.034;2022-12-18T04:34:19;-6.60;99.90
13472;DHT22;6808;49.444;11.034;2022-12-18T04:36:45;-6.60;99.90
13472;DHT22;6808;49.444;11.034;2022-12-18T04:39:11;-6.60;99.90
13472;DHT22;6808;49.444;11.034;2022-12-18T04:41:37;-6.50;99.90
13472;DHT22;6808;49.444;11.034;2022-12-18T04:44:02;-6.50;99.90
13472;DHT22;6808;49.444;11.034;2022-12-18T04:46:28;-6.50;99.90
13472;DHT22;6808;49.444;11.034;2022-12-18T04:48:53;-6.40;99.90
13472;DHT22;6808;49.444;11.034;2022-12-18T04:51:19;-6.50;99.90
13472;DHT22;6808;49.444;11.034;2022-12-18T04:53:44;-6.50;99.90
13472;DHT22;6808;49.444;11.034;2022-12-18T04:56:12;-6.50;99.90
13472;DHT22;6808;49.444;11.034;2022-12-18T04:58:39;-6.30;99.90
13472;DHT22;6808;49.444;11.034;2022-12-18T05:01:06;-6.30;99.90
13472;DHT22;6808;49.444;11.034;2022-12-18T05:03:33;-6.40;99.90
13472;DHT22;6808;49.444;11.034;2022-12-18T05:05:59;-6.40;99.90
13472;DHT22;6808;49.444;11.034;2022-12-18T05:08:25;-6.40;99.90
13472;DHT22;6808;49.444;11.034;2022-12-18T05:10:59;-6.30;99.90
13472;DHT22;6808;49.444;11.034;2022-12-18T05:13:25;-6.30;99.90
13472;DHT22;6808;49.444;11.034;2022-12-18T05:15:52;-6.30;99.90
13472;DHT22;6808;49.444;11.034;2022-12-18T05:18:18;-6.30;99.90
13472;DHT22;6808;49.444;11.034;2022-12-18T05:20:43;-6.20;99.90
13472;DHT22;6808;49.444;11.034;2022-12-18T05:23:09;-6.20;99.90
13472;DHT22;6808;49.444;11.034;2022-12-18T05:25:34;-6.20;99.90
13472;DHT22;6808;49.444;11.034;2022-12-18T05:28:00;-6.10;99.90
13472;DHT22;6808;49.444;11.034;2022-12-18T05:30:26;-6.10;99.90
13472;DHT22;6808;49.444;11.034;2022-12-18T05:32:52;-6.10;99.90
13472;DHT22;6808;49.444;11.034;2022-12-18T05:35:18;-6.10;99.90
13472;DHT22;6808;49.444;11.034;2022-12-18T05:37:44;-6.10;99.90
13472;DHT22;6808;49.444;11.034;2022-12-18T05:40:10;-6.00;99.90
13472;DHT22;6808;49.444;11.034;2022-12-18T05:42:36;-6.00;99.90
13472;DHT22;6808;49.444;11.034;2022-12-18T05:45:02;-6.00;99.90
13472;DHT22;6808;49.444;11.034;2022-12-18T05:47:27;-6.00;99.90
13472;DHT22;6808;49.444;11.034;2022-12-18T05:49:54;-6.00;99.90
13472;DHT22;6808;49.444;11.034;2022-12-18T05:52:19;-6.00;99.90
13472;DHT22;6808;49.444;11.034;2022-12-18T05:54:45;-6.00;99.90
13472;DHT22;6808;49.444;11.034;2022-12-18T05:57:11;-5.90;99.90
13472;DHT22;6808;49.444;11.034;2022-12-18T05:59:36;-5.90;99.90
13472;DHT22;6808;49.444;11.034;2022-12-18T06:02:02;-5.90;99.90
13472;DHT22;6808;49.444;11.034;2022-12-18T06:04:28;-5.80;99.90
13472;DHT22;6808;49.444;11.034;2022-12-18T06:06:56;-5.90;99.90
13472;DHT22;6808;49.444;11.034;2022-12-18T06:09:22;-5.90;99.90
13472;DHT22;6808;49.444;11.034;2022-12-18T06:11:48;-5.80;99.90
13472;DHT22;6808;49.444;11.034;2022-12-18T06:14:13;-5.80;99.90
13472;DHT22;6808;49.444;11.034;2022-12-18T06:16:42;-5.60;99.90
13472;DHT22;6808;49.444;11.034;2022-12-18T06:19:07;-5.70;99.90
13472;DHT22;6808;49.444;11.034;2022-12-18T06:21:34;-5.80;99.90
13472;DHT22;6808;49.444;11.034;2022-12-18T06:24:00;-5.80;99.90
13472;DHT22;6808;49.444;11.034;2022-12-18T06:26:25;-5.80;99.90
13472;DHT22;6808;49.444;11.034;2022-12-18T06:28:51;-5.80;99.90
13472;DHT22;6808;49.444;11.034;2022-12-18T06:31:16;-5.80;99.90
13472;DHT22;6808;49.444;11.034;2022-12-18T06:33:42;-5.80;99.90
13472;DHT22;6808;49.444;11.034;2022-12-18T06:36:12;-5.80;99.90
13472;DHT22;6808;49.444;11.034;2022-12-18T06:38:39;-5.80;99.90
13472;DHT22;6808;49.444;11.034;2022-12-18T06:41:12;-5.80;99.90
13472;DHT22;6808;49.444;11.034;2022-12-18T06:43:38;-5.90;99.90
13472;DHT22;6808;49.444;11.034;2022-12-18T06:46:04;-5.90;99.90
13472;DHT22;6808;49.444;11.034;2022-12-18T06:48:30;-6.00;99.90
13472;DHT22;6808;49.444;11.034;2022-12-18T06:50:56;-6.00;99.90
13472;DHT22;6808;49.444;11.034;2022-12-18T06:53:21;-5.90;99.90
13472;DHT22;6808;49.444;11.034;2022-12-18T06:55:47;-5.90;99.90
13472;DHT22;6808;49.444;11.034;2022-12-18T06:58:13;-5.80;99.90
13472;DHT22;6808;49.444;11.034;2022-12-18T07:00:38;-5.80;99.90
13472;DHT22;6808;49.444;11.034;2022-12-18T07:03:04;-5.80;99.90
13472;DHT22;6808;49.444;11.034;2022-12-18T07:05:29;-5.80;99.90
13472;DHT22;6808;49.444;11.034;2022-12-18T07:07:55;-5.80;99.90
13472;DHT22;6808;49.444;11.034;2022-12-18T07:10:20;-5.80;99.90
13472;DHT22;6808;49.444;11.034;2022-12-18T07:12:46;-5.80;99.90
13472;DHT22;6808;49.444;11.034;2022-12-18T07:15:12;-5.70;99.90
13472;DHT22;6808;49.444;11.034;2022-12-18T07:17:37;-5.70;99.90
13472;DHT22;6808;49.444;11.034;2022-12-18T07:20:04;-5.70;99.90
13472;DHT22;6808;49.444;11.034;2022-12-18T07:22:30;-5.60;99.90
13472;DHT22;6808;49.444;11.034;2022-12-18T07:24:55;-5.60;99.90
13472;DHT22;6808;49.444;11.034;2022-12-18T07:27:22;-5.60;99.90
13472;DHT22;6808;49.444;11.034;2022-12-18T07:29:48;-5.60;99.90
13472;DHT22;6808;49.444;11.034;2022-12-18T07:32:13;-5.60;99.90
13472;DHT22;6808;49.444;11.034;2022-12-18T07:34:39;-5.60;99.90
13472;DHT22;6808;49.444;11.034;2022-12-18T07:37:05;-5.60;99.90
13472;DHT22;6808;49.444;11.034;2022-12-18T07:39:30;-5.60;99.90
13472;DHT22;6808;49.444;11.034;2022-12-18T07:41:56;-5.60;99.90
13472;DHT22;6808;49.444;11.034;2022-12-18T07:44:40;-5.60;99.90
13472;DHT22;6808;49.444;11.034;2022-12-18T07:47:06;-5.50;99.90
13472;DHT22;6808;49.444;11.034;2022-12-18T07:49:32;-5.50;99.90
13472;DHT22;6808;49.444;11.034;2022-12-18T07:51:58;-5.50;99.90
13472;DHT22;6808;49.444;11.034;2022-12-18T07:54:24;-5.40;99.90
13472;DHT22;6808;49.444;11.034;2022-12-18T07:56:50;-5.30;99.90
13472;DHT22;6808;49.444;11.034;2022-12-18T07:59:16;-5.30;99.90
13472;DHT22;6808;49.444;11.034;2022-12-18T08:01:42;-5.20;99.90
13472;DHT22;6808;49.444;11.034;2022-12-18T08:04:08;-5.10;99.90
13472;DHT22;6808;49.444;11.034;2022-12-18T08:06:33;-5.10;99.90
13472;DHT22;6808;49.444;11.034;2022-12-18T08:08:59;-5.00;99.90
13472;DHT22;6808;49.444;11.034;2022-12-18T08:11:28;-4.90;99.90
13472;DHT22;6808;49.444;11.034;2022-12-18T08:13:54;-4.90;99.90
13472;DHT22;6808;49.444;11.034;2022-12-18T08:16:21;-4.80;99.90
13472;DHT22;6808;49.444;11.034;2022-12-18T08:18:47;-4.80;99.90
13472;DHT22;6808;49.444;11.034;2022-12-18T08:21:14;-4.70;99.90
13472;DHT22;6808;49.444;11.034;2022-12-18T08:23:41;-4.60;99.90
13472;DHT22;6808;49.444;11.034;2022-12-18T08:26:07;-4.60;99.90
13472;DHT22;6808;49.444;11.034;2022-12-18T08:28:33;-4.60;99.90
13472;DHT22;6808;49.444;11.034;2022-12-18T08:30:59;-4.60;99.90
13472;DHT22;6808;49.444;11.034;2022-12-18T08:33:24;-4.00;99.90
13472;DHT22;6808;49.444;11.034;2022-12-18T08:35:50;-4.50;99.90
13472;DHT22;6808;49.444;11.034;2022-12-18T08:38:15;-4.50;99.90
13472;DHT22;6808;49.444;11.034;2022-12-18T08:40:41;-4.50;99.90
13472;DHT22;6808;49.444;11.034;2022-12-18T08:43:09;-4.50;99.90
13472;DHT22;6808;49.444;11.034;2022-12-18T08:45:54;-4.40;99.90
13472;DHT22;6808;49.444;11.034;2022-12-18T08:48:20;-4.40;99.90
13472;DHT22;6808;49.444;11.034;2022-12-18T08:50:57;-4.40;99.90
13472;DHT22;6808;49.444;11.034;2022-12-18T08:53:23;-4.30;99.90
13472;DHT22;6808;49.444;11.034;2022-12-18T08:55:49;-4.30;99.90
13472;DHT22;6808;49.444;11.034;2022-12-18T08:58:15;-4.20;99.90
13472;DHT22;6808;49.444;11.034;2022-12-18T09:00:40;-4.20;99.90
13472;DHT22;6808;49.444;11.034;2022-12-18T09:03:14;-4.20;99.90
13472;DHT22;6808;49.444;11.034;2022-12-18T09:05:40;-4.20;99.90
13472;DHT22;6808;49.444;11.034;2022-12-18T09:08:06;-4.20;99.90
13472;DHT22;6808;49.444;11.034;2022-12-18T09:10:32;-4.20;99.90
13472;DHT22;6808;49.444;11.034;2022-12-18T09:12:57;-4.20;99.90
13472;DHT22;6808;49.444;11.034;2022-12-18T09:15:23;-4.10;99.90
13472;DHT22;6808;49.444;11.034;2022-12-18T09:17:49;-4.10;99.90
13472;DHT22;6808;49.444;11.034;2022-12-18T09:20:16;-4.10;99.90
13472;DHT22;6808;49.444;11.034;2022-12-18T09:22:42;-4.00;99.90
13472;DHT22;6808;49.444;11.034;2022-12-18T09:25:07;-4.00;99.90
13472;DHT22;6808;49.444;11.034;2022-12-18T09:27:34;-4.00;99.90
13472;DHT22;6808;49.444;11.034;2022-12-18T09:29:59;-4.00;99.90
13472;DHT22;6808;49.444;11.034;2022-12-18T09:32:25;-3.90;99.90
13472;DHT22;6808;49.444;11.034;2022-12-18T09:34:51;-3.90;99.90
13472;DHT22;6808;49.444;11.034;2022-12-18T09:37:17;-3.80;99.90
13472;DHT22;6808;49.444;11.034;2022-12-18T09:39:42;-3.80;99.90
13472;DHT22;6808;49.444;11.034;2022-12-18T09:42:20;-3.80;99.90
13472;DHT22;6808;49.444;11.034;2022-12-18T09:44:51;-3.90;99.90
13472;DHT22;6808;49.444;11.034;2022-12-18T09:47:30;-3.90;99.90
13472;DHT22;6808;49.444;11.034;2022-12-18T09:50:01;-3.90;99.90
13472;DHT22;6808;49.444;11.034;2022-12-18T09:52:37;-3.90;99.90
13472;DHT22;6808;49.444;11.034;2022-12-18T09:55:22;-3.90;99.90
13472;DHT22;6808;49.444;11.034;2022-12-18T09:57:53;-3.90;99.90
13472;DHT22;6808;49.444;11.034;2022-12-18T10:00:22;-3.90;99.90
13472;DHT22;6808;49.444;11.034;2022-12-18T10:02:48;-3.80;99.90
13472;DHT22;6808;49.444;11.034;2022-12-18T10:05:18;-3.70;99.90
13472;DHT22;6808;49.444;11.034;2022-12-18T10:11:01;-3.70;99.90
13472;DHT22;6808;49.444;11.034;2022-12-18T10:13:41;-3.60;99.90
13472;DHT22;6808;49.444;11.034;2022-12-18T10:16:14;-3.60;99.90
13472;DHT22;6808;49.444;11.034;2022-12-18T10:21:59;-3.50;99.90
13472;DHT22;6808;49.444;11.034;2022-12-18T10:27:04;-3.60;99.90
13472;DHT22;6808;49.444;11.034;2022-12-18T10:29:35;-3.60;99.90
13472;DHT22;6808;49.444;11.034;2022-12-18T10:32:00;-3.60;99.90
13472;DHT22;6808;49.444;11.034;2022-12-18T10:34:26;-3.60;99.90
13472;DHT22;6808;49.444;11.034;2022-12-18T10:36:51;-3.70;99.90
13472;DHT22;6808;49.444;11.034;2022-12-18T10:39:22;-3.60;99.90
13472;DHT22;6808;49.444;11.034;2022-12-18T10:41:48;-3.60;99.90
13472;DHT22;6808;49.444;11.034;2022-12-18T10:44:20;-3.60;99.90
13472;DHT22;6808;49.444;11.034;2022-12-18T10:46:49;-3.50;99.90
13472;DHT22;6808;49.444;11.034;2022-12-18T10:49:23;-3.40;99.90
13472;DHT22;6808;49.444;11.034;2022-12-18T10:51:51;-3.40;99.90
13472;DHT22;6808;49.444;11.034;2022-12-18T10:54:21;-3.40;99.90
13472;DHT22;6808;49.444;11.034;2022-12-18T10:56:47;-3.40;99.90
13472;DHT22;6808;49.444;11.034;2022-12-18T10:59:15;-3.50;99.90
13472;DHT22;6808;49.444;11.034;2022-12-18T11:07:06;-3.30;99.90
13472;DHT22;6808;49.444;11.034;2022-12-18T11:09:39;-3.30;99.90
13472;DHT22;6808;49.444;11.034;2022-12-18T11:12:19;-3.20;99.90
13472;DHT22;6808;49.444;11.034;2022-12-18T11:14:49;-3.20;99.90
13472;DHT22;6808;49.444;11.034;2022-12-18T11:17:35;-3.20;99.90
13472;DHT22;6808;49.444;11.034;2022-12-18T11:20:06;-3.20;99.90
13472;DHT22;6808;49.444;11.034;2022-12-18T11:22:34;-3.10;99.90
13472;DHT22;6808;49.444;11.034;2022-12-18T11:25:21;-3.20;99.90
13472;DHT22;6808;49.444;11.034;2022-12-18T11:27:55;-3.20;99.90
13472;DHT22;6808;49.444;11.034;2022-12-18T11:30:31;-3.20;99.90
13472;DHT22;6808;49.444;11.034;2022-12-18T11:33:11;-3.10;99.90
13472;DHT22;6808;49.444;11.034;2022-12-18T11:35:57;-3.10;99.90
13472;DHT22;6808;49.444;11.034;2022-12-18T11:38:30;-3.10;99.90
13472;DHT22;6808;49.444;11.034;2022-12-18T11:41:04;-3.10;99.90
13472;DHT22;6808;49.444;11.034;2022-12-18T11:43:50;-3.00;99.90
13472;DHT22;6808;49.444;11.034;2022-12-18T11:46:24;-3.00;99.90
13472;DHT22;6808;49.444;11.034;2022-12-18T11:48:57;-2.90;99.90
13472;DHT22;6808;49.444;11.034;2022-12-18T11:51:50;-3.00;99.90
13472;DHT22;6808;49.444;11.034;2022-12-18T11:54:17;-3.10;99.90
13472;DHT22;6808;49.444;11.034;2022-12-18T11:56:48;-3.00;99.90
13472;DHT22;6808;49.444;11.034;2022-12-18T11:59:56;-3.00;99.90
13472;DHT22;6808;49.444;11.034;2022-12-18T12:02:48;-3.00;99.90
13472;DHT22;6808;49.444;11.034;2022-12-18T12:11:32;-3.00;99.90
13472;DHT22;6808;49.444;11.034;2022-12-18T12:14:13;-3.00;99.90
13472;DHT22;6808;49.444;11.034;2022-12-18T12:16:54;-3.00;99.90
13472;DHT22;6808;49.444;11.034;2022-12-18T12:19:26;-2.90;99.90
13472;DHT22;6808;49.444;11.034;2022-12-18T12:22:11;-2.90;99.90
13472;DHT22;6808;49.444;11.034;2022-12-18T12:27:30;-2.80;99.90
13472;DHT22;6808;49.444;11.034;2022-12-18T12:30:06;-2.80;99.90
13472;DHT22;6808;49.444;11.034;2022-12-18T12:38:41;-2.80;99.90
13472;DHT22;6808;49.444;11.034;2022-12-18T12:41:13;-2.80;99.90
13472;DHT22;6808;49.444;11.034;2022-12-18T12:44:01;-2.70;99.90
13472;DHT22;6808;49.444;11.034;2022-12-18T12:46:32;-2.70;99.90
13472;DHT22;6808;49.444;11.034;2022-12-18T12:49:02;-2.80;99.90
13472;DHT22;6808;49.444;11.034;2022-12-18T12:51:37;-2.80;99.90
13472;DHT22;6808;49.444;11.034;2022-12-18T12:54:06;-2.80;99.90
13472;DHT22;6808;49.444;11.034;2022-12-18T12:56:42;-2.80;99.90
13472;DHT22;6808;49.444;11.034;2022-12-18T12:59:22;-2.80;99.90
13472;DHT22;6808;49.444;11.034;2022-12-18T13:04:36;-2.80;99.90
13472;DHT22;6808;49.444;11.034;2022-12-18T13:07:35;-2.80;99.90
13472;DHT22;6808;49.444;11.034;2022-12-18T13:13:12;-2.80;99.90
13472;DHT22;6808;49.444;11.034;2022-12-18T13:15:46;-2.80;99.90
13472;DHT22;6808;49.444;11.034;2022-12-18T13:18:19;-2.80;99.90
13472;DHT22;6808;49.444;11.034;2022-12-18T13:23:39;-2.80;99.90
13472;DHT22;6808;49.444;11.034;2022-12-18T13:28:51;-2.80;99.90
13472;DHT22;6808;49.444;11.034;2022-12-18T13:31:57;-2.70;99.90
13472;DHT22;6808;49.444;11.034;2022-12-18T13:34:28;-2.80;99.90
13472;DHT22;6808;49.444;11.034;2022-12-18T13:39:57;-2.80;99.90
13472;DHT22;6808;49.444;11.034;2022-12-18T13:45:37;-2.80;99.90
13472;DHT22;6808;49.444;11.034;2022-12-18T13:48:03;-2.80;99.90
13472;DHT22;6808;49.444;11.034;2022-12-18T13:50:29;-2.70;99.90
13472;DHT22;6808;49.444;11.034;2022-12-18T13:52:55;-2.70;99.90
13472;DHT22;6808;49.444;11.034;2022-12-18T13:55:22;-2.80;99.90
13472;DHT22;6808;49.444;11.034;2022-12-18T13:57:48;-2.80;99.90
13472;DHT22;6808;49.444;11.034;2022-12-18T14:00:27;-2.80;99.90
13472;DHT22;6808;49.444;11.034;2022-12-18T14:02:54;-2.80;99.90
13472;DHT22;6808;49.444;11.034;2022-12-18T14:05:31;-2.80;99.90
13472;DHT22;6808;49.444;11.034;2022-12-18T14:08:07;-2.80;99.90
13472;DHT22;6808;49.444;11.034;2022-12-18T14:10:33;-2.80;99.90
13472;DHT22;6808;49.444;11.034;2022-12-18T14:13:04;-2.80;99.90
13472;DHT22;6808;49.444;11.034;2022-12-18T14:15:44;-2.90;99.90
13472;DHT22;6808;49.444;11.034;2022-12-18T14:20:43;-2.90;99.90
13472;DHT22;6808;49.444;11.034;2022-12-18T14:23:44;-2.90;99.90
13472;DHT22;6808;49.444;11.034;2022-12-18T14:26:27;-2.90;99.90
13472;DHT22;6808;49.444;11.034;2022-12-18T14:28:58;-2.90;99.90
13472;DHT22;6808;49.444;11.034;2022-12-18T14:31:28;-2.90;99.90
13472;DHT22;6808;49.444;11.034;2022-12-18T14:33:54;-2.90;99.90
13472;DHT22;6808;49.444;11.034;2022-12-18T14:36:26;-2.90;99.90
13472;DHT22;6808;49.444;11.034;2022-12-18T14:38:57;-3.00;99.90
13472;DHT22;6808;49.444;11.034;2022-12-18T14:41:23;-3.00;99.90
13472;DHT22;6808;49.444;11.034;2022-12-18T14:43:51;-3.00;99.90
13472;DHT22;6808;49.444;11.034;2022-12-18T14:48:59;-3.00;99.90
13472;DHT22;6808;49.444;11.034;2022-12-18T14:51:28;-3.00;99.90
13472;DHT22;6808;49.444;11.034;2022-12-18T14:53:57;-3.00;99.90
13472;DHT22;6808;49.444;11.034;2022-12-18T15:01:49;-3.10;99.90
13472;DHT22;6808;49.444;11.034;2022-12-18T15:13:15;-3.20;99.90
13472;DHT22;6808;49.444;11.034;2022-12-18T15:20:56;-3.30;99.90
13472;DHT22;6808;49.444;11.034;2022-12-18T15:23:51;-3.30;99.90
13472;DHT22;6808;49.444;11.034;2022-12-18T15:26:19;-3.40;99.90
13472;DHT22;6808;49.444;11.034;2022-12-18T15:28:53;-3.40;99.90
13472;DHT22;6808;49.444;11.034;2022-12-18T15:31:23;-3.40;99.90
13472;DHT22;6808;49.444;11.034;2022-12-18T15:36:19;-3.40;99.90
13472;DHT22;6808;49.444;11.034;2022-12-18T15:38:50;-3.40;99.90
13472;DHT22;6808;49.444;11.034;2022-12-18T15:41:18;-3.40;99.90
13472;DHT22;6808;49.444;11.034;2022-12-18T15:43:46;-3.50;99.90
13472;DHT22;6808;49.444;11.034;2022-12-18T15:46:18;-3.50;99.90
13472;DHT22;6808;49.444;11.034;2022-12-18T15:49:04;-3.50;99.90
13472;DHT22;6808;49.444;11.034;2022-12-18T15:51:35;-3.60;99.90
13472;DHT22;6808;49.444;11.034;2022-12-18T15:54:03;-3.50;99.90
13472;DHT22;6808;49.444;11.034;2022-12-18T15:56:30;-3.60;99.90
13472;DHT22;6808;49.444;11.034;2022-12-18T15:59:16;-3.60;99.90
13472;DHT22;6808;49.444;11.034;2022-12-18T16:01:45;-3.60;99.90
13472;DHT22;6808;49.444;11.034;2022-12-18T16:04:12;-3.70;99.90
13472;DHT22;6808;49.444;11.034;2022-12-18T16:06:39;-3.60;99.90
13472;DHT22;6808;49.444;11.034;2022-12-18T16:09:06;-3.60;99.90
13472;DHT22;6808;49.444;11.034;2022-12-18T16:11:33;-3.60;99.90
13472;DHT22;6808;49.444;11.034;2022-12-18T16:14:16;-3.70;99.90
13472;DHT22;6808;49.444;11.034;2022-12-18T16:16:43;-3.70;99.90
13472;DHT22;6808;49.444;11.034;2022-12-18T16:19:08;-3.80;99.90
13472;DHT22;6808;49.444;11.034;2022-12-18T16:21:34;-3.70;99.90
13472;DHT22;6808;49.444;11.034;2022-12-18T16:24:00;-3.80;99.90
13472;DHT22;6808;49.444;11.034;2022-12-18T16:26:26;-3.80;99.90
13472;DHT22;6808;49.444;11.034;2022-12-18T16:28:51;-3.80;99.90
13472;DHT22;6808;49.444;11.034;2022-12-18T16:31:18;-3.80;99.90
13472;DHT22;6808;49.444;11.034;2022-12-18T16:33:44;-3.80;99.90
13472;DHT22;6808;49.444;11.034;2022-12-18T16:36:10;-3.80;99.90
13472;DHT22;6808;49.444;11.034;2022-12-18T16:38:35;-3.90;99.90
13472;DHT22;6808;49.444;11.034;2022-12-18T16:41:01;-3.90;99.90
13472;DHT22;6808;49.444;11.034;2022-12-18T16:43:45;-3.90;99.90
13472;DHT22;6808;49.444;11.034;2022-12-18T16:46:10;-4.00;99.90
13472;DHT22;6808;49.444;11.034;2022-12-18T16:48:36;-4.00;99.90
13472;DHT22;6808;49.444;11.034;2022-12-18T16:51:03;-4.00;99.90
13472;DHT22;6808;49.444;11.034;2022-12-18T16:53:29;-4.00;99.90
13472;DHT22;6808;49.444;11.034;2022-12-18T16:55:56;-4.00;99.90
13472;DHT22;6808;49.444;11.034;2022-12-18T16:58:21;-4.00;99.90
13472;DHT22;6808;49.444;11.034;2022-12-18T17:00:47;-4.00;99.90
13472;DHT22;6808;49.444;11.034;2022-12-18T17:03:13;-4.10;99.90
13472;DHT22;6808;49.444;11.034;2022-12-18T17:05:39;-4.10;99.90
13472;DHT22;6808;49.444;11.034;2022-12-18T17:08:04;-4.20;99.90
13472;DHT22;6808;49.444;11.034;2022-12-18T17:10:30;-4.20;99.90
13472;DHT22;6808;49.444;11.034;2022-12-18T17:12:55;-4.20;99.90
13472;DHT22;6808;49.444;11.034;2022-12-18T17:15:21;-4.20;99.90
13472;DHT22;6808;49.444;11.034;2022-12-18T17:17:47;-4.20;99.90
13472;DHT22;6808;49.444;11.034;2022-12-18T17:20:12;-4.20;99.90